This is the latest recevied weather packets stored in our database for station/object IZ3TCG-13. If no packets are shown the sender has not sent any weather packets the latest 10 day(s).
| Time | Temp. | Humidity | Pressure | Rain* | Wind** | Luminosity | Snow |
|---|---|---|---|---|---|---|---|
| 1777814883 | 25.56° C | 45% | 1011.6 hPa | 0 mm | - | - | - |
| 1777812964 | 25.56° C | 45% | 1012 hPa | 0 mm | - | - | - |
| 1777811044 | 27.22° C | 31% | 1012.1 hPa | 0 mm | - | - | - |
| 1777810084 | 26.67° C | 31% | 1012.3 hPa | 0 mm | - | - | - |
| 1777809844 | 26.11° C | 38% | 1012.3 hPa | 0 mm | - | - | - |
| 1777809125 | 26.67° C | 32% | 1012.4 hPa | 0 mm | - | - | - |
| 1777807924 | 26.67° C | 36% | 1012.3 hPa | 0 mm | - | - | - |
| 1777807333 | 26.11° C | 35% | 1012.4 hPa | 0 mm | - | - | - |
| 1777806964 | 26.11° C | 33% | 1012.5 hPa | 0 mm | - | - | - |
| 1777804564 | 25.56° C | 36% | 1012.7 hPa | 0 mm | - | - | - |
| 1777802884 | 25.56° C | 39% | 1012.9 hPa | 0 mm | - | - | - |
| 1777800133 | 25° C | 39% | 1007.1 hPa | 0 mm | - | - | - |
| 1777799044 | 25° C | 39% | 1007.2 hPa | 0 mm | - | - | - |
| 1777794483 | 21.67° C | 56% | 1007.5 hPa | 0 mm | - | - | - |
| 1777792564 | 19.44° C | 63% | 1007.5 hPa | 0 mm | - | - | - |
| 1777791604 | 17.78° C | 66% | 1007.5 hPa | 0 mm | - | - | - |
| 1777790884 | 17.78° C | 66% | 1007.6 hPa | 0 mm | - | - | - |
| 1777790163 | 17.22° C | 67% | 1007.6 hPa | 0 mm | - | - | - |
| 1777788244 | 15.56° C | 74% | 1007.5 hPa | 0 mm | - | - | - |
| 1777788004 | 15.56° C | 74% | 1007.4 hPa | 0 mm | - | - | - |
| 1777787524 | 15° C | 74% | 1007.4 hPa | 0 mm | - | - | - |
| 1777785363 | 11.67° C | 85% | 1007.5 hPa | 0 mm | - | - | - |
| 1777783204 | 9.44° C | 89% | 1007.5 hPa | 0 mm | - | - | - |
| 1777782483 | 9.44° C | 89% | 1007.5 hPa | 0 mm | - | - | - |
| 1777781044 | 8.89° C | 88% | 1007.4 hPa | 0 mm | - | - | - |
* Rain latest hour (hover to see other rain measurements)
** Current wind speed in m/s (hover to see current wind gust speed)